Time;durP1;ratioP1;P1;durP2;ratioP2;P2;SDS_P1;SDS_P2;PMS_P1;PMS_P2;Temp;Humidity;BMP_temperature;BMP_pressure;BME280_temperature;BME280_humidity;BME280_pressure;Samples;Min_cycle;Max_cycle;Signal;HPM_P1;HPM_P2
2021/11/18 00:00:13;;;;;;;1999.90;999.90;;;6.50;99.90;;;;;;5116501;28;20023;-83
2021/11/18 00:02:39;;;;;;;1999.90;999.90;;;6.60;99.90;;;;;;5117540;28;20047;-84
2021/11/18 00:05:07;;;;;;;1999.90;999.90;;;6.60;99.90;;;;;;5116682;28;20041;-83
2021/11/18 00:07:33;;;;;;;1999.90;999.90;;;6.60;99.90;;;;;;5116448;28;20016;-82
2021/11/18 00:09:59;;;;;;;1999.90;999.90;;;6.60;99.90;;;;;;5116384;28;20490;-83
2021/11/18 00:12:26;;;;;;;1999.90;999.90;;;6.60;99.90;;;;;;5116433;28;20030;-84
2021/11/18 00:14:51;;;;;;;1999.90;999.90;;;6.60;99.90;;;;;;5116213;28;20115;-83
2021/11/18 00:17:17;;;;;;;1999.90;999.90;;;6.60;99.90;;;;;;5116587;28;20043;-84
2021/11/18 00:19:43;;;;;;;1999.90;999.90;;;6.60;99.90;;;;;;5116215;28;20084;-85
2021/11/18 00:22:09;;;;;;;1999.90;999.90;;;6.60;99.90;;;;;;5116231;28;20028;-83
2021/11/18 00:24:35;;;;;;;1999.90;999.90;;;6.60;99.90;;;;;;5116115;28;20020;-87
2021/11/18 00:27:01;;;;;;;1999.90;999.90;;;6.60;99.90;;;;;;5116013;28;20031;-87
2021/11/18 00:29:27;;;;;;;1999.90;999.90;;;6.60;99.90;;;;;;5116379;28;20020;-84
2021/11/18 00:31:53;;;;;;;1999.90;999.90;;;6.50;99.90;;;;;;5116115;28;20032;-83
2021/11/18 00:34:18;;;;;;;1999.90;999.90;;;6.50;99.90;;;;;;5115937;28;20501;-84
2021/11/18 00:36:45;;;;;;;1999.90;999.90;;;6.50;99.90;;;;;;5116007;28;20027;-83
2021/11/18 00:39:11;;;;;;;1999.90;999.90;;;6.50;99.90;;;;;;5116901;28;20103;-84
2021/11/18 00:41:36;;;;;;;1999.90;999.90;;;6.40;99.90;;;;;;5115978;28;20047;-86
2021/11/18 00:44:05;;;;;;;1999.90;999.90;;;6.40;99.90;;;;;;5115744;28;20028;-83
2021/11/18 00:46:33;;;;;;;1999.90;999.90;;;6.50;99.90;;;;;;5115511;28;20118;-85
2021/11/18 00:48:59;;;;;;;1999.90;999.90;;;6.40;99.90;;;;;;5115521;28;20378;-82
2021/11/18 00:51:25;;;;;;;1999.90;999.90;;;6.40;99.90;;;;;;5116745;28;20028;-84
2021/11/18 00:53:54;;;;;;;1999.90;999.90;;;6.40;99.90;;;;;;5115490;28;20046;-84
2021/11/18 00:56:21;;;;;;;1999.90;999.90;;;6.40;99.90;;;;;;5115068;28;20028;-85
2021/11/18 00:58:48;;;;;;;1999.90;999.90;;;6.50;99.90;;;;;;5115303;28;20016;-89
2021/11/18 01:01:15;;;;;;;1999.90;999.90;;;6.40;99.90;;;;;;5115483;28;20052;-82
2021/11/18 01:03:41;;;;;;;1999.90;999.90;;;6.40;99.90;;;;;;5115219;28;20028;-83
2021/11/18 01:06:07;;;;;;;1999.90;999.90;;;6.40;99.90;;;;;;5116300;28;20019;-86
2021/11/18 01:08:33;;;;;;;1999.90;999.90;;;6.40;99.90;;;;;;5115256;28;20024;-83
2021/11/18 01:11:11;;;;;;;1999.90;999.90;;;6.40;99.90;;;;;;5116274;28;20036;-83
2021/11/18 01:13:38;;;;;;;1999.90;999.90;;;6.50;99.90;;;;;;5115182;28;20077;-86
2021/11/18 01:16:04;;;;;;;1999.90;999.90;;;6.40;99.90;;;;;;5114976;28;20020;-85
2021/11/18 01:18:31;;;;;;;1999.90;999.90;;;6.50;99.90;;;;;;5115104;28;20050;-84
2021/11/18 01:20:58;;;;;;;1999.90;999.90;;;6.50;99.90;;;;;;5115577;28;20072;-85
2021/11/18 01:23:28;;;;;;;1999.90;999.90;;;6.40;99.90;;;;;;5115281;28;20378;-87
2021/11/18 01:25:54;;;;;;;1999.90;999.90;;;6.40;99.90;;;;;;5114949;28;20057;-82
2021/11/18 01:28:20;;;;;;;1999.90;999.90;;;6.50;99.90;;;;;;5114764;28;20016;-84
2021/11/18 01:30:46;;;;;;;1999.90;999.90;;;6.50;99.90;;;;;;5115045;28;20039;-86
2021/11/18 01:33:14;;;;;;;1999.90;999.90;;;6.50;99.90;;;;;;5114676;28;20119;-82
2021/11/18 01:35:41;;;;;;;1999.90;999.90;;;6.50;99.90;;;;;;5115930;28;20035;-86
2021/11/18 01:38:07;;;;;;;1999.90;999.90;;;6.50;99.90;;;;;;5114877;28;20027;-82
2021/11/18 01:40:37;;;;;;;1999.90;999.90;;;6.50;99.90;;;;;;5114860;28;20027;-84
2021/11/18 01:43:03;;;;;;;1999.90;999.90;;;6.50;99.90;;;;;;5114841;28;20046;-84
2021/11/18 01:45:31;;;;;;;1999.90;999.90;;;6.50;99.90;;;;;;5114518;28;20450;-83
2021/11/18 01:47:57;;;;;;;1999.90;999.90;;;6.50;99.90;;;;;;5115712;28;20481;-83
2021/11/18 01:50:26;;;;;;;1999.90;999.90;;;6.60;99.90;;;;;;5114280;28;20032;-81
2021/11/18 01:52:53;;;;;;;1999.90;999.90;;;6.50;99.90;;;;;;5114416;28;20022;-83
2021/11/18 01:55:20;;;;;;;1999.90;999.90;;;6.40;99.90;;;;;;5115503;28;20019;-84
2021/11/18 01:57:47;;;;;;;1999.90;999.90;;;6.40;99.90;;;;;;5114216;28;20110;-82
2021/11/18 02:00:21;;;;;;;1999.90;999.90;;;6.40;99.90;;;;;;5114221;28;20028;-83
2021/11/18 02:02:47;;;;;;;1999.90;999.90;;;6.40;99.90;;;;;;5114126;28;20229;-83
2021/11/18 02:05:26;;;;;;;1999.90;999.90;;;6.40;99.90;;;;;;5114148;28;20118;-85
2021/11/18 02:07:53;;;;;;;1999.90;999.90;;;6.40;99.90;;;;;;5114038;28;20110;-83
2021/11/18 02:10:28;;;;;;;1999.90;999.90;;;6.50;99.90;;;;;;5113982;28;20438;-83
2021/11/18 02:12:54;;;;;;;1999.90;999.90;;;6.40;99.90;;;;;;5113792;28;20024;-83
2021/11/18 02:15:34;;;;;;;1999.90;999.90;;;6.40;99.90;;;;;;5114021;28;20073;-82
2021/11/18 02:18:01;;;;;;;1999.90;999.90;;;6.40;99.90;;;;;;5114027;28;20080;-83
2021/11/18 02:20:32;;;;;;;1999.90;999.90;;;6.40;99.90;;;;;;5114119;28;20085;-82
2021/11/18 02:23:00;;;;;;;1999.90;999.90;;;6.40;99.90;;;;;;5113871;28;20091;-85
2021/11/18 02:25:31;;;;;;;1999.90;999.90;;;6.40;99.90;;;;;;5113863;28;20030;-84
2021/11/18 02:27:58;;;;;;;1999.90;999.90;;;6.40;99.90;;;;;;5113828;28;20024;-83
2021/11/18 02:30:26;;;;;;;1999.90;999.90;;;6.40;99.90;;;;;;5113767;28;20120;-83
2021/11/18 02:32:54;;;;;;;1999.90;999.90;;;6.40;99.90;;;;;;5113986;28;20019;-84
2021/11/18 02:35:24;;;;;;;1999.90;999.90;;;6.30;99.90;;;;;;5113492;28;20222;-82
2021/11/18 02:37:52;;;;;;;1999.90;999.90;;;6.30;99.90;;;;;;5113564;28;20028;-84
2021/11/18 02:40:19;;;;;;;1999.90;999.90;;;6.30;99.90;;;;;;5114679;28;20020;-86
2021/11/18 02:42:45;;;;;;;1999.90;999.90;;;6.20;99.90;;;;;;5113497;28;20122;-83
2021/11/18 02:45:15;;;;;;;1999.90;999.90;;;6.10;99.90;;;;;;5113116;28;20045;-85
2021/11/18 02:47:42;;;;;;;1999.90;999.90;;;6.10;99.90;;;;;;5113545;28;20028;-83
2021/11/18 02:50:14;;;;;;;1999.90;999.90;;;6.10;99.90;;;;;;5113351;28;20448;-83
2021/11/18 02:52:40;;;;;;;1999.90;999.90;;;6.10;99.90;;;;;;5113265;28;20375;-83
2021/11/18 02:55:13;;;;;;;1999.90;999.90;;;6.10;99.90;;;;;;5113465;28;20028;-83
2021/11/18 02:57:38;;;;;;;1999.90;999.90;;;6.00;99.90;;;;;;5113608;28;20026;-84
2021/11/18 03:00:09;;;;;;;1999.90;999.90;;;5.90;99.90;;;;;;5113450;28;20024;-83
2021/11/18 03:02:34;;;;;;;1999.90;999.90;;;5.90;99.90;;;;;;5114973;28;20092;-82
2021/11/18 03:05:00;;;;;;;1999.90;999.90;;;5.90;99.90;;;;;;5117849;28;20491;-83
2021/11/18 03:07:26;;;;;;;1999.90;999.90;;;5.80;99.90;;;;;;5117736;28;20020;-83
2021/11/18 03:09:52;;;;;;;1999.90;999.90;;;5.80;99.90;;;;;;5117645;28;20031;-83
2021/11/18 03:12:17;;;;;;;1999.90;999.90;;;5.80;99.90;;;;;;5117491;28;20104;-85
2021/11/18 03:14:43;;;;;;;1999.90;999.90;;;5.80;99.90;;;;;;5117567;28;20056;-83
2021/11/18 03:17:09;;;;;;;1999.90;999.90;;;5.70;99.90;;;;;;5117544;28;20016;-84
2021/11/18 03:19:34;;;;;;;1999.90;999.90;;;5.80;99.90;;;;;;5117572;28;20031;-86
2021/11/18 03:22:00;;;;;;;1999.90;999.90;;;5.70;99.90;;;;;;5117608;28;20053;-82
2021/11/18 03:24:26;;;;;;;1999.90;999.90;;;5.70;99.90;;;;;;5118417;28;20477;-80
2021/11/18 03:26:52;;;;;;;1999.90;999.90;;;5.60;99.90;;;;;;5117333;28;20080;-84
2021/11/18 03:29:17;;;;;;;1999.90;999.90;;;5.60;99.90;;;;;;5117371;28;20035;-85
2021/11/18 03:31:43;;;;;;;1999.90;999.90;;;5.60;99.90;;;;;;5117221;28;20032;-83
2021/11/18 03:34:12;;;;;;;1999.90;999.90;;;5.40;99.90;;;;;;5118893;28;20030;-81
2021/11/18 03:36:39;;;;;;;1999.90;999.90;;;5.40;99.90;;;;;;5118172;28;20382;-86
2021/11/18 03:39:07;;;;;;;1999.90;999.90;;;5.30;99.90;;;;;;5118424;28;20041;-84
2021/11/18 03:41:36;;;;;;;1999.90;999.90;;;5.30;99.90;;;;;;5117445;28;20034;-84
2021/11/18 03:44:05;;;;;;;1999.90;999.90;;;5.30;99.90;;;;;;5117180;28;20020;-84
2021/11/18 03:46:38;;;;;;;1999.90;999.90;;;5.40;99.90;;;;;;5117081;28;20157;-83
2021/11/18 03:49:05;;;;;;;1999.90;999.90;;;5.30;99.90;;;;;;5117328;28;20078;-84
2021/11/18 03:51:32;;;;;;;1999.90;999.90;;;5.40;99.90;;;;;;5116936;28;20019;-83
2021/11/18 03:54:00;;;;;;;1999.90;999.90;;;5.30;99.90;;;;;;5117054;28;20088;-86
2021/11/18 03:56:27;;;;;;;1999.90;999.90;;;5.20;99.90;;;;;;5117884;28;20034;-84
2021/11/18 03:58:53;;;;;;;1999.90;999.90;;;5.10;99.90;;;;;;5116873;28;20501;-85
2021/11/18 04:01:19;;;;;;;1999.90;999.90;;;5.10;99.90;;;;;;5116614;28;20043;-81
2021/11/18 04:03:46;;;;;;;1999.90;999.90;;;5.20;99.90;;;;;;5117726;28;20482;-84
2021/11/18 04:06:12;;;;;;;1999.90;999.90;;;5.20;99.90;;;;;;5117577;28;20512;-85
2021/11/18 04:08:38;;;;;;;1999.90;999.90;;;5.20;99.90;;;;;;5116801;28;20062;-82
2021/11/18 04:11:04;;;;;;;1999.90;999.90;;;5.30;99.90;;;;;;5116468;28;20063;-84
2021/11/18 04:13:31;;;;;;;1999.90;999.90;;;5.30;99.90;;;;;;5117376;28;20927;-86
2021/11/18 04:15:57;;;;;;;1999.90;999.90;;;5.30;99.90;;;;;;5116381;28;20486;-86
2021/11/18 04:18:24;;;;;;;1999.90;999.90;;;5.30;99.90;;;;;;5116354;28;20027;-84
2021/11/18 04:20:51;;;;;;;1999.90;999.90;;;5.30;99.90;;;;;;5117326;28;20463;-81
2021/11/18 04:23:24;;;;;;;1999.90;999.90;;;5.30;99.90;;;;;;5116370;28;20181;-83
2021/11/18 04:25:51;;;;;;;1999.90;999.90;;;5.30;99.90;;;;;;5117072;28;20484;-82
2021/11/18 04:28:18;;;;;;;1999.90;999.90;;;5.20;99.90;;;;;;5116055;28;20016;-84
2021/11/18 04:30:48;;;;;;;1999.90;999.90;;;5.20;99.90;;;;;;5116973;28;20114;-85
2021/11/18 04:33:14;;;;;;;1999.90;999.90;;;5.20;99.90;;;;;;5116314;28;20527;-85
2021/11/18 04:35:41;;;;;;;1999.90;999.90;;;5.20;99.90;;;;;;5115961;28;20058;-83
2021/11/18 04:38:07;;;;;;;1999.90;999.90;;;5.20;99.90;;;;;;5115630;28;20459;-85
2021/11/18 04:40:34;;;;;;;1999.90;999.90;;;5.30;99.90;;;;;;5115636;28;20038;-83
2021/11/18 04:43:01;;;;;;;1999.90;999.90;;;5.30;99.90;;;;;;5115894;28;20047;-83
2021/11/18 04:45:27;;;;;;;1999.90;999.90;;;5.30;99.90;;;;;;5116860;28;20415;-82
2021/11/18 04:47:53;;;;;;;1999.90;999.90;;;5.30;99.90;;;;;;5115488;28;20068;-86
2021/11/18 04:50:20;;;;;;;1999.90;999.90;;;5.30;99.90;;;;;;5115799;28;20433;-83
2021/11/18 04:52:46;;;;;;;1999.90;999.90;;;5.30;99.90;;;;;;5115896;28;20024;-83
2021/11/18 04:55:15;;;;;;;1999.90;999.90;;;5.20;99.90;;;;;;5115459;28;20047;-86
2021/11/18 04:57:41;;;;;;;1999.90;999.90;;;5.20;99.90;;;;;;5115787;28;20103;-83
2021/11/18 05:00:12;;;;;;;1999.90;999.90;;;5.20;99.90;;;;;;5115652;28;20028;-82
2021/11/18 05:02:37;;;;;;;1999.90;999.90;;;5.20;99.90;;;;;;5116627;28;20043;-84
2021/11/18 05:05:04;;;;;;;1999.90;999.90;;;5.20;99.90;;;;;;5115560;28;20027;-86
2021/11/18 05:07:30;;;;;;;1999.90;999.90;;;5.10;99.90;;;;;;5115425;28;20035;-84
2021/11/18 05:09:56;;;;;;;1999.90;999.90;;;5.20;99.90;;;;;;5115405;28;20035;-82
2021/11/18 05:12:21;;;;;;;1999.90;999.90;;;5.10;99.90;;;;;;5116510;28;20506;-83
2021/11/18 05:14:47;;;;;;;1999.90;999.90;;;5.10;99.90;;;;;;5115381;28;20030;-83
2021/11/18 05:17:13;;;;;;;1999.90;999.90;;;5.20;99.90;;;;;;5115276;28;20371;-83
2021/11/18 05:19:38;;;;;;;1999.90;999.90;;;5.10;99.90;;;;;;5115084;28;20046;-83
2021/11/18 05:22:04;;;;;;;1999.90;999.90;;;5.10;99.90;;;;;;5115212;28;20031;-84
2021/11/18 05:24:30;;;;;;;1999.90;999.90;;;5.20;99.90;;;;;;5115158;28;20016;-84
2021/11/18 05:26:56;;;;;;;1999.90;999.90;;;5.20;99.90;;;;;;5113609;28;20059;-82
2021/11/18 05:29:22;;;;;;;1999.90;999.90;;;5.20;99.90;;;;;;5116216;28;20027;-83
2021/11/18 05:31:47;;;;;;;1999.90;999.90;;;5.10;99.90;;;;;;5114839;28;20084;-86
2021/11/18 05:34:13;;;;;;;1999.90;999.90;;;5.10;99.90;;;;;;5115106;28;20070;-84
2021/11/18 05:36:39;;;;;;;1999.90;999.90;;;5.00;99.90;;;;;;5114653;28;20032;-82
2021/11/18 05:39:05;;;;;;;1999.90;999.90;;;4.90;99.90;;;;;;5115845;28;20135;-86
2021/11/18 05:41:31;;;;;;;1999.90;999.90;;;4.90;99.90;;;;;;5114710;28;20030;-85
2021/11/18 05:44:03;;;;;;;1999.90;999.90;;;4.90;99.90;;;;;;5114616;28;20023;-85
2021/11/18 05:46:33;;;;;;;1999.90;999.90;;;5.00;99.90;;;;;;5114668;28;20031;-84
2021/11/18 05:49:00;;;;;;;1999.90;999.90;;;4.90;99.90;;;;;;5114574;28;20607;-83
2021/11/18 05:51:27;;;;;;;1999.90;999.90;;;4.90;99.90;;;;;;5114529;28;20034;-82
2021/11/18 05:53:53;;;;;;;1999.90;999.90;;;5.00;99.90;;;;;;5114659;27;20378;-83
2021/11/18 05:56:21;;;;;;;1999.90;999.90;;;4.90;99.90;;;;;;5114276;28;20153;-86
2021/11/18 05:58:48;;;;;;;1999.90;999.90;;;4.90;99.90;;;;;;5114338;28;20027;-83
2021/11/18 06:01:16;;;;;;;1999.90;999.90;;;5.10;99.90;;;;;;5114319;28;20089;-83
2021/11/18 06:03:42;;;;;;;1999.90;999.90;;;5.10;99.90;;;;;;5114457;28;20072;-82
2021/11/18 06:06:08;;;;;;;1999.90;999.90;;;5.10;99.90;;;;;;5115533;28;20024;-86
2021/11/18 06:08:35;;;;;;;1999.90;999.90;;;5.10;99.90;;;;;;5115412;28;20038;-84
2021/11/18 06:11:01;;;;;;;1999.90;999.90;;;5.10;99.90;;;;;;5115362;28;20028;-87
2021/11/18 06:13:27;;;;;;;1999.90;999.90;;;5.10;99.90;;;;;;5115201;28;20023;-83
2021/11/18 06:15:52;;;;;;;1999.90;999.90;;;5.10;99.90;;;;;;5114223;28;20024;-86
2021/11/18 06:18:18;;;;;;;1999.90;999.90;;;5.20;99.90;;;;;;5113974;28;20020;-84
2021/11/18 06:20:44;;;;;;;1999.90;999.90;;;5.30;99.90;;;;;;5113989;28;20076;-82
2021/11/18 06:23:12;;;;;;;1999.90;999.90;;;5.20;99.90;;;;;;5113710;28;20058;-83
2021/11/18 06:25:38;;;;;;;1999.90;999.90;;;5.20;99.90;;;;;;5113560;28;20031;-85
2021/11/18 06:28:05;;;;;;;1999.90;999.90;;;5.30;99.90;;;;;;5113796;28;20020;-83
2021/11/18 06:30:35;;;;;;;1999.90;999.90;;;5.30;99.90;;;;;;5113581;28;20084;-85
2021/11/18 06:33:00;;;;;;;1999.90;999.90;;;5.30;99.90;;;;;;5114839;28;20023;-83
2021/11/18 06:35:27;;;;;;;1999.90;999.90;;;5.30;99.90;;;;;;5114993;28;20034;-81
2021/11/18 06:37:53;;;;;;;1999.90;999.90;;;5.80;99.90;;;;;;5112723;28;20073;-75
2021/11/18 06:40:20;;;;;;;1999.90;999.90;;;5.60;99.90;;;;;;5113555;28;20095;-82
2021/11/18 06:42:47;;;;;;;1999.90;999.90;;;5.60;99.90;;;;;;5118958;28;20012;-84
2021/11/18 06:45:15;;;;;;;1999.90;999.90;;;5.50;99.90;;;;;;5113398;28;20030;-82
2021/11/18 06:47:41;;;;;;;1999.90;999.90;;;5.40;99.90;;;;;;5113343;28;20024;-85
2021/11/18 06:50:08;;;;;;;1999.90;999.90;;;5.40;99.90;;;;;;5113309;28;20024;-82
2021/11/18 06:52:33;;;;;;;1999.90;999.90;;;5.40;99.90;;;;;;5114400;28;20574;-83
2021/11/18 06:54:59;;;;;;;1999.90;999.90;;;5.40;99.90;;;;;;5113201;28;20059;-81
2021/11/18 06:57:25;;;;;;;1999.90;999.90;;;5.40;99.90;;;;;;5113005;28;20467;-82
2021/11/18 06:59:51;;;;;;;1999.90;999.90;;;5.40;99.90;;;;;;5112829;28;20022;-84
2021/11/18 07:02:18;;;;;;;1999.90;999.90;;;5.50;99.90;;;;;;5114217;28;20043;-81
2021/11/18 07:04:46;;;;;;;1999.90;999.90;;;5.50;99.90;;;;;;5113211;28;20046;-83
2021/11/18 07:07:11;;;;;;;1999.90;999.90;;;5.50;99.90;;;;;;5112841;28;20447;-82
2021/11/18 07:09:40;;;;;;;1999.90;999.90;;;5.50;99.90;;;;;;5112933;28;20049;-82
2021/11/18 07:12:09;;;;;;;1999.90;999.90;;;5.60;99.90;;;;;;5113015;28;20122;-82
2021/11/18 07:14:37;;;;;;;1999.90;999.90;;;5.60;99.90;;;;;;5112982;28;20102;-81
2021/11/18 07:17:04;;;;;;;1999.90;999.90;;;5.70;99.90;;;;;;5113209;28;20054;-82
2021/11/18 07:19:31;;;;;;;1999.90;999.90;;;5.70;99.90;;;;;;5114100;28;20015;-82
2021/11/18 07:21:57;;;;;;;1999.90;999.90;;;5.80;99.90;;;;;;5113059;28;20035;-83
2021/11/18 07:24:23;;;;;;;1999.90;999.90;;;5.90;99.90;;;;;;5112973;28;20020;-81
2021/11/18 07:26:48;;;;;;;1999.90;999.90;;;5.90;99.90;;;;;;5114186;28;20375;-81
2021/11/18 07:29:14;;;;;;;1999.90;999.90;;;5.80;99.90;;;;;;5113726;28;20031;-81
2021/11/18 07:31:40;;;;;;;1999.90;999.90;;;5.80;99.90;;;;;;5112259;28;20483;-82
2021/11/18 07:34:06;;;;;;;1999.90;999.90;;;5.80;99.90;;;;;;5113870;28;20023;-81
2021/11/18 07:36:32;;;;;;;1999.90;999.90;;;5.80;99.90;;;;;;5112966;28;20047;-80
2021/11/18 07:38:58;;;;;;;1999.90;999.90;;;5.90;99.90;;;;;;5112667;28;20020;-82
2021/11/18 07:41:23;;;;;;;1999.90;999.90;;;5.90;99.90;;;;;;5112494;28;20024;-84
2021/11/18 07:43:49;;;;;;;1999.90;999.90;;;5.90;99.90;;;;;;5113156;28;20035;-83
2021/11/18 07:46:16;;;;;;;1999.90;999.90;;;5.90;99.90;;;;;;5113696;28;20463;-84
2021/11/18 07:48:45;;;;;;;1999.90;999.90;;;6.00;99.90;;;;;;5114158;28;20471;-85
2021/11/18 07:51:11;;;;;;;1999.90;999.90;;;6.10;99.90;;;;;;5117345;28;20035;-81
2021/11/18 07:53:38;;;;;;;1999.90;999.90;;;6.10;99.90;;;;;;5118670;28;20047;-85
2021/11/18 07:56:05;;;;;;;1999.90;999.90;;;6.20;99.90;;;;;;5118500;28;20459;-84
2021/11/18 07:58:31;;;;;;;1999.90;999.90;;;6.30;99.90;;;;;;5117706;28;20020;-86
2021/11/18 08:00:57;;;;;;;1999.90;999.90;;;6.30;99.90;;;;;;5117955;28;20127;-83
2021/11/18 08:03:25;;;;;;;1999.90;999.90;;;6.40;99.90;;;;;;5117325;28;20051;-85
2021/11/18 08:05:51;;;;;;;1999.90;999.90;;;6.60;99.90;;;;;;5117413;28;20027;-86
2021/11/18 08:08:17;;;;;;;1999.90;999.90;;;6.50;99.90;;;;;;5117433;28;20463;-84
2021/11/18 08:10:42;;;;;;;1999.90;999.90;;;6.60;99.90;;;;;;5117709;28;20031;-87
2021/11/18 08:13:08;;;;;;;1999.90;999.90;;;6.60;99.90;;;;;;5117138;28;20024;-83
2021/11/18 08:15:34;;;;;;;1999.90;999.90;;;6.60;99.90;;;;;;5117123;28;20076;-84
2021/11/18 08:18:00;;;;;;;1999.90;999.90;;;6.50;99.90;;;;;;5117563;28;20379;-86
2021/11/18 08:20:26;;;;;;;1999.90;999.90;;;6.50;99.90;;;;;;5116546;28;20030;-84
2021/11/18 08:22:53;;;;;;;1999.90;999.90;;;6.50;99.90;;;;;;5117095;28;20580;-84
2021/11/18 08:25:24;;;;;;;1999.90;999.90;;;6.50;99.90;;;;;;5117412;28;20387;-86
2021/11/18 08:27:50;;;;;;;1999.90;999.90;;;6.60;99.90;;;;;;5117200;28;20119;-84
2021/11/18 08:30:20;;;;;;;1999.90;999.90;;;6.70;99.90;;;;;;5117395;28;20523;-86
2021/11/18 08:32:48;;;;;;;1999.90;999.90;;;6.80;99.90;;;;;;5116611;28;20027;-84
2021/11/18 08:35:15;;;;;;;1999.90;999.90;;;6.90;99.90;;;;;;5116813;28;20023;-83
2021/11/18 08:37:42;;;;;;;1999.90;999.90;;;6.80;99.90;;;;;;5116566;28;20015;-83
2021/11/18 08:40:08;;;;;;;1999.90;999.90;;;6.90;99.90;;;;;;5115734;28;20028;-82
2021/11/18 08:42:35;;;;;;;1999.90;999.90;;;7.10;99.90;;;;;;5115506;28;20008;-81
2021/11/18 08:45:00;;;;;;;1999.90;999.90;;;7.20;99.90;;;;;;5116738;28;20023;-82
2021/11/18 08:47:26;;;;;;;1999.90;999.90;;;8.30;99.90;;;;;;5114253;28;20046;-82
2021/11/18 08:49:52;;;;;;;1999.90;999.90;;;8.10;99.90;;;;;;5114189;28;20031;-81
2021/11/18 08:52:23;;;;;;;1999.90;999.90;;;7.80;99.90;;;;;;5114310;28;20020;-82
2021/11/18 08:54:52;;;;;;;1999.90;999.90;;;7.70;99.90;;;;;;5114088;28;20110;-82
2021/11/18 08:57:18;;;;;;;1999.90;999.90;;;7.50;99.90;;;;;;5114367;28;20080;-81
2021/11/18 08:59:44;;;;;;;1999.90;999.90;;;7.50;99.90;;;;;;5114251;28;20058;-82
2021/11/18 09:02:15;;;;;;;1999.90;999.90;;;7.40;99.90;;;;;;5115229;28;20129;-83
2021/11/18 09:04:41;;;;;;;1999.90;999.90;;;7.50;99.90;;;;;;5114050;28;20016;-81
2021/11/18 09:07:07;;;;;;;1999.90;999.90;;;7.60;99.90;;;;;;5115424;28;20039;-82
2021/11/18 09:09:33;;;;;;;1999.90;999.90;;;7.70;99.90;;;;;;5113941;28;20053;-82
2021/11/18 09:12:00;;;;;;;1999.90;999.90;;;7.60;99.90;;;;;;5113918;28;20083;-82
2021/11/18 09:14:28;;;;;;;1999.90;999.90;;;7.60;99.90;;;;;;5113864;28;20043;-81
2021/11/18 09:16:54;;;;;;;1999.90;999.90;;;7.70;99.90;;;;;;5115025;28;20482;-83
2021/11/18 09:19:24;;;;;;;1999.90;999.90;;;7.80;99.90;;;;;;5113952;28;20374;-84
2021/11/18 09:21:51;;;;;;;1999.90;999.90;;;7.80;99.90;;;;;;5113826;28;20069;-83
2021/11/18 09:24:24;;;;;;;1999.90;999.90;;;7.80;99.90;;;;;;5114824;28;20035;-82
2021/11/18 09:26:55;;;;;;;1999.90;999.90;;;7.80;99.90;;;;;;5113698;28;20106;-80
2021/11/18 09:29:22;;;;;;;1999.90;999.90;;;7.90;99.90;;;;;;5114536;28;20023;-83
2021/11/18 09:31:47;;;;;;;1999.90;999.90;;;7.80;99.90;;;;;;5114836;28;20031;-82
2021/11/18 09:34:14;;;;;;;1999.90;999.90;;;7.80;99.90;;;;;;5114593;28;20116;-82
2021/11/18 09:36:40;;;;;;;1999.90;999.90;;;7.80;99.90;;;;;;5113460;28;20114;-82
2021/11/18 09:39:09;;;;;;;1999.90;999.90;;;7.80;99.90;;;;;;5113219;28;20023;-82
2021/11/18 09:41:55;;;;;;;1999.90;999.90;;;7.80;99.90;;;;;;5114624;28;20019;-82
2021/11/18 09:44:47;;;;;;;1999.90;999.90;;;7.90;99.90;;;;;;5114458;28;20528;-81
2021/11/18 09:47:23;;;;;;;1999.90;999.90;;;7.80;99.90;;;;;;5113231;28;20673;-82
2021/11/18 09:49:48;;;;;;;;;;;7.80;99.90;;;;;;5113532;28;20035;-83
2021/11/18 09:52:40;;;;;;;1999.90;999.90;;;7.90;99.90;;;;;;5113343;28;19968;-84
2021/11/18 09:55:14;;;;;;;1999.90;999.90;;;8.00;99.90;;;;;;5113197;28;20044;-82
2021/11/18 09:58:01;;;;;;;1999.90;999.90;;;8.20;99.90;;;;;;5113161;28;20027;-82
2021/11/18 10:00:30;;;;;;;1999.90;999.90;;;8.30;99.90;;;;;;5113170;28;20022;-82
2021/11/18 10:03:04;;;;;;;1999.90;999.90;;;8.40;99.90;;;;;;5112868;28;20057;-82
2021/11/18 10:05:50;;;;;;;1999.90;999.90;;;8.40;99.90;;;;;;5113081;28;20455;-82
2021/11/18 10:08:22;;;;;;;1999.90;999.90;;;8.50;99.90;;;;;;5113060;28;20024;-82
2021/11/18 10:10:58;;;;;;;1999.90;999.90;;;8.60;99.90;;;;;;5113138;28;20069;-82
2021/11/18 10:13:29;;;;;;;1999.90;999.90;;;8.60;99.90;;;;;;5112273;28;20027;-81
2021/11/18 10:15:59;;;;;;;1999.90;999.90;;;8.70;99.90;;;;;;5113895;28;20062;-84
2021/11/18 10:18:32;;;;;;;1999.90;999.90;;;8.80;99.90;;;;;;5112852;28;20039;-82
2021/11/18 10:21:11;;;;;;;1999.90;999.90;;;8.90;99.90;;;;;;5112830;28;20095;-83
2021/11/18 10:23:38;;;;;;;1999.90;999.90;;;9.00;99.90;;;;;;5113789;28;20024;-82
2021/11/18 10:26:13;;;;;;;1999.90;999.90;;;9.10;99.90;;;;;;5113657;28;20020;-83
2021/11/18 10:29:04;;;;;;;1999.90;999.90;;;9.20;99.90;;;;;;5112521;28;20463;-85
2021/11/18 10:31:48;;;;;;;1999.90;999.90;;;9.30;99.90;;;;;;5112523;28;20040;-83
2021/11/18 10:34:42;;;;;;;1999.90;999.90;;;9.40;99.90;;;;;;5112361;28;20031;-83
2021/11/18 10:37:15;;;;;;;1999.90;999.90;;;9.50;99.90;;;;;;5112421;28;20455;-84
2021/11/18 10:40:00;;;;;;;1999.90;999.90;;;9.60;99.90;;;;;;5112444;28;20126;-83
2021/11/18 10:42:41;;;;;;;1999.90;999.90;;;9.90;99.90;;;;;;5112457;28;20027;-82
2021/11/18 10:45:13;;;;;;;1999.90;999.90;;;10.00;99.90;;;;;;5113400;28;20074;-83
2021/11/18 10:48:02;;;;;;;1999.90;999.90;;;10.10;99.90;;;;;;5112220;28;20023;-83
2021/11/18 10:51:00;;;;;;;1999.90;999.90;;;10.30;99.90;;;;;;5112472;28;20038;-81
2021/11/18 10:53:48;;;;;;;1999.90;999.90;;;10.40;99.90;;;;;;5112331;28;20375;-82
2021/11/18 10:56:17;;;;;;;1999.90;999.90;;;10.50;99.90;;;;;;5112231;28;20016;-82
2021/11/18 10:58:46;;;;;;;1999.90;999.90;;;10.70;99.90;;;;;;5112272;28;20527;-84
2021/11/18 11:01:31;;;;;;;1999.90;999.90;;;10.70;97.00;;;;;;5111911;28;20047;-83
2021/11/18 11:04:00;;;;;;;1999.90;999.90;;;10.60;97.00;;;;;;5113300;28;20032;-78
2021/11/18 11:06:44;;;;;;;1999.90;999.90;;;10.60;97.80;;;;;;5111821;28;20028;-76
2021/11/18 11:09:10;;;;;;;1999.90;999.90;;;11.10;99.90;;;;;;5111581;28;20041;-75
2021/11/18 11:11:54;;;;;;;1999.90;999.90;;;11.20;99.90;;;;;;5112215;28;20084;-76
2021/11/18 11:14:47;;;;;;;1999.90;999.90;;;11.10;97.10;;;;;;5119376;28;20364;-75
2021/11/18 11:17:22;;;;;;;1999.90;999.90;;;11.00;95.00;;;;;;5112342;28;20027;-76
2021/11/18 11:20:01;;;;;;;1999.90;999.90;;;10.90;94.30;;;;;;5116272;28;20028;-77
2021/11/18 11:22:42;;;;;;;1999.90;999.90;;;10.90;94.10;;;;;;5112620;28;20360;-76
2021/11/18 11:25:35;;;;;;;1999.90;999.90;;;10.90;94.10;;;;;;5114743;28;20386;-77
2021/11/18 11:28:19;;;;;;;1999.90;999.90;;;10.80;92.60;;;;;;5114678;28;20070;-76
2021/11/18 11:30:47;;;;;;;1999.90;999.90;;;10.60;93.00;;;;;;5116431;28;20084;-77
2021/11/18 11:33:18;;;;;;;1999.90;999.90;;;10.60;93.20;;;;;;5116531;28;20043;-76
2021/11/18 11:35:51;;;;;;;1999.90;999.90;;;10.50;94.00;;;;;;5116150;28;20111;-78
2021/11/18 11:39:01;;;;;;;1999.90;999.90;;;10.50;95.50;;;;;;5116198;28;20047;-76
2021/11/18 11:42:00;;;;;;;1999.90;999.90;;;10.40;95.90;;;;;;5092535;28;20081;-78
2021/11/18 11:44:26;;;;;;;1999.90;999.90;;;10.40;97.10;;;;;;5116237;28;20106;-75
2021/11/18 11:46:59;;;;;;;1999.90;999.90;;;10.40;96.90;;;;;;5116322;28;20100;-76
2021/11/18 11:49:36;;;;;;;1999.90;999.90;;;10.50;96.80;;;;;;5116167;28;20079;-75
2021/11/18 11:52:32;;;;;;;1999.90;999.90;;;10.50;97.40;;;;;;5115995;28;20081;-74
2021/11/18 11:55:25;;;;;;;1999.90;999.90;;;10.50;97.00;;;;;;5115752;28;20095;-76
2021/11/18 11:57:51;;;;;;;1999.90;999.90;;;10.60;97.10;;;;;;5115870;28;20031;-76
2021/11/18 12:00:43;;;;;;;1999.90;999.90;;;10.60;97.00;;;;;;5115908;28;20098;-75
2021/11/18 12:03:31;;;;;;;1999.90;999.90;;;10.60;96.60;;;;;;5115881;28;20033;-75
2021/11/18 12:06:24;;;;;;;1999.90;999.90;;;10.70;96.80;;;;;;5115674;28;20371;-76
2021/11/18 12:09:08;;;;;;;1999.90;999.90;;;10.70;97.00;;;;;;5114412;28;20020;-77
2021/11/18 12:11:52;;;;;;;1999.90;999.90;;;10.80;96.50;;;;;;5114258;28;20544;-76
2021/11/18 12:14:38;;;;;;;1999.90;999.90;;;10.90;95.60;;;;;;5115480;28;20103;-75
2021/11/18 12:17:17;;;;;;;1999.90;999.90;;;10.90;95.50;;;;;;5115609;28;20478;-75
2021/11/18 12:20:06;;;;;;;1999.90;999.90;;;10.90;95.20;;;;;;5114270;28;20107;-77